createdAt,value
2018-05-05T00:02:26.361Z,11.50
2018-05-05T00:04:54.627Z,11.50
2018-05-05T00:07:22.883Z,11.50
2018-05-05T00:09:51.148Z,11.50
2018-05-05T00:12:20.190Z,11.50
2018-05-05T00:14:48.463Z,11.50
2018-05-05T00:17:16.733Z,11.50
2018-05-05T00:19:45.042Z,11.50
2018-05-05T00:22:13.307Z,11.50
2018-05-05T00:24:41.591Z,11.50
2018-05-05T00:27:09.847Z,11.50
2018-05-05T00:29:38.125Z,11.50
2018-05-05T00:32:06.381Z,11.50
2018-05-05T00:34:34.649Z,11.40
2018-05-05T00:37:02.888Z,11.40
2018-05-05T00:39:31.914Z,11.40
2018-05-05T00:42:00.159Z,11.40
2018-05-05T00:44:29.182Z,11.30
2018-05-05T00:46:57.464Z,11.30
2018-05-05T00:49:25.741Z,11.30
2018-05-05T00:51:54.024Z,11.20
2018-05-05T00:54:40.160Z,11.20
2018-05-05T00:57:08.427Z,11.20
2018-05-05T00:59:36.688Z,11.10
2018-05-05T01:02:05.720Z,11.00
2018-05-05T01:04:33.977Z,11.00
2018-05-05T01:07:02.236Z,11.00
2018-05-05T01:09:30.500Z,11.00
2018-05-05T01:11:58.760Z,11.00
2018-05-05T01:14:27.022Z,11.00
2018-05-05T01:16:55.289Z,11.00
2018-05-05T01:19:24.308Z,10.90
2018-05-05T01:21:52.564Z,10.90
2018-05-05T01:24:20.818Z,10.90
2018-05-05T01:26:49.843Z,10.90
2018-05-05T01:29:18.089Z,10.80
2018-05-05T01:31:47.125Z,10.80
2018-05-05T01:34:15.393Z,10.80
2018-05-05T01:36:43.660Z,10.80
2018-05-05T01:39:11.911Z,10.70
2018-05-05T01:41:40.934Z,10.80
2018-05-05T01:44:09.187Z,10.80
2018-05-05T01:46:38.215Z,10.80
2018-05-05T01:49:06.461Z,10.80
2018-05-05T01:51:34.732Z,10.70
2018-05-05T01:54:03.761Z,10.90
2018-05-05T01:56:32.033Z,10.90
2018-05-05T01:59:00.286Z,10.90
2018-05-05T02:01:28.546Z,10.90
2018-05-05T02:03:57.571Z,10.80
2018-05-05T02:06:25.835Z,10.80
2018-05-05T02:08:54.107Z,10.80
2018-05-05T02:11:22.371Z,10.80
2018-05-05T02:13:51.394Z,10.70
2018-05-05T02:16:19.655Z,10.70
2018-05-05T02:18:47.915Z,10.70
2018-05-05T02:21:16.939Z,10.80
2018-05-05T02:23:45.196Z,10.70
2018-05-05T02:26:13.467Z,10.80
2018-05-05T02:28:42.501Z,10.70
2018-05-05T02:31:10.761Z,10.70
2018-05-05T02:33:39.026Z,10.70
2018-05-05T02:36:07.291Z,10.60
2018-05-05T02:38:35.552Z,10.50
2018-05-05T02:41:04.585Z,10.60
2018-05-05T02:43:32.839Z,10.50
2018-05-05T02:46:01.101Z,10.50
2018-05-05T02:48:29.367Z,10.50
2018-05-05T02:50:58.397Z,10.50
2018-05-05T02:53:26.671Z,10.50
2018-05-05T02:55:54.924Z,10.50
2018-05-05T02:58:23.960Z,10.40
2018-05-05T03:00:52.217Z,10.40
2018-05-05T03:03:20.471Z,10.40
2018-05-05T03:05:49.493Z,10.50
2018-05-05T03:08:17.745Z,10.40
2018-05-05T03:10:46.003Z,10.50
2018-05-05T03:13:15.030Z,10.40
2018-05-05T03:15:43.283Z,10.40
2018-05-05T03:18:11.539Z,10.40
2018-05-05T03:20:40.579Z,10.40
2018-05-05T03:23:08.831Z,10.30
2018-05-05T03:25:37.095Z,10.30
2018-05-05T03:28:06.132Z,10.40
2018-05-05T03:30:34.393Z,10.30
2018-05-05T03:33:02.658Z,10.40
2018-05-05T03:35:30.926Z,10.40
2018-05-05T03:37:59.948Z,10.40
2018-05-05T03:40:28.211Z,10.40
2018-05-05T03:42:56.480Z,10.40
2018-05-05T03:45:24.747Z,10.30
2018-05-05T03:47:53.007Z,10.30
2018-05-05T03:50:22.031Z,10.30
2018-05-05T03:52:50.299Z,10.30
2018-05-05T03:55:18.557Z,10.30
2018-05-05T03:57:47.585Z,10.30
2018-05-05T04:00:33.446Z,10.30
2018-05-05T04:03:20.219Z,10.30
2018-05-05T04:05:48.462Z,10.20
2018-05-05T04:08:16.735Z,10.30
2018-05-05T04:10:44.989Z,10.30
2018-05-05T04:13:13.264Z,10.30
2018-05-05T04:15:41.516Z,10.30
2018-05-05T04:18:10.561Z,10.40
2018-05-05T04:20:38.811Z,10.30
2018-05-05T04:23:07.077Z,10.40
2018-05-05T04:25:36.098Z,10.40
2018-05-05T04:28:04.364Z,10.40
2018-05-05T04:30:34.105Z,10.40
2018-05-05T04:33:02.373Z,10.40
2018-05-05T04:35:30.632Z,10.40
2018-05-05T04:37:58.894Z,10.40
2018-05-05T04:40:27.162Z,10.40
2018-05-05T04:42:56.179Z,10.50
2018-05-05T04:45:24.427Z,10.40
2018-05-05T04:47:53.453Z,10.50
2018-05-05T04:50:21.717Z,10.40
2018-05-05T04:52:50.015Z,10.50
2018-05-05T04:55:18.370Z,10.50
2018-05-05T04:57:46.635Z,10.50
2018-05-05T05:00:14.922Z,10.60
2018-05-05T05:02:43.167Z,10.60
2018-05-05T05:05:12.238Z,10.70
2018-05-05T05:07:40.447Z,10.70
2018-05-05T05:10:09.486Z,10.80
2018-05-05T05:12:37.740Z,10.80
2018-05-05T05:15:05.998Z,10.80
2018-05-05T05:17:34.262Z,10.90
2018-05-05T05:20:03.287Z,11.00
2018-05-05T05:22:31.539Z,10.90
2018-05-05T05:24:59.844Z,11.00
2018-05-05T05:27:28.164Z,11.00
2018-05-05T05:29:56.384Z,11.10
2018-05-05T05:32:24.635Z,11.10
2018-05-05T05:34:53.662Z,11.10
2018-05-05T05:37:21.904Z,11.10
2018-05-05T05:39:50.932Z,11.30
2018-05-05T05:42:19.190Z,11.20
2018-05-05T05:44:47.445Z,11.30
2018-05-05T05:47:16.464Z,11.40
2018-05-05T05:49:44.727Z,11.40
2018-05-05T05:52:13.600Z,11.40
2018-05-05T05:54:41.834Z,11.40
2018-05-05T05:57:10.116Z,11.50
2018-05-05T05:59:38.367Z,11.50
2018-05-05T06:02:06.633Z,11.50
2018-05-05T06:04:34.909Z,11.60
2018-05-05T06:07:03.179Z,11.60
2018-05-05T06:09:31.437Z,11.70
2018-05-05T06:12:00.478Z,11.80
2018-05-05T06:14:28.736Z,11.80
2018-05-05T06:16:57.032Z,11.90
2018-05-05T06:19:25.308Z,11.90
2018-05-05T06:21:53.591Z,12.00
2018-05-05T06:24:21.849Z,12.10
2018-05-05T06:26:50.105Z,12.20
2018-05-05T06:29:18.368Z,12.20
2018-05-05T06:31:47.393Z,12.30
2018-05-05T06:34:15.663Z,12.30
2018-05-05T06:36:43.902Z,12.40
2018-05-05T06:39:12.921Z,12.60
2018-05-05T06:41:41.170Z,12.60
2018-05-05T06:44:10.219Z,12.70
2018-05-05T06:46:38.479Z,12.70
2018-05-05T06:49:06.746Z,12.90
2018-05-05T06:51:35.002Z,13.00
2018-05-05T06:54:03.277Z,13.10
2018-05-05T06:56:31.548Z,13.20
2018-05-05T06:59:00.582Z,13.40
2018-05-05T07:01:28.857Z,13.40
2018-05-05T07:03:57.143Z,13.60
2018-05-05T07:06:25.404Z,13.70
2018-05-05T07:08:53.701Z,13.90
2018-05-05T07:11:21.947Z,13.90
2018-05-05T07:13:50.217Z,14.00
2018-05-05T07:16:18.503Z,14.20
2018-05-05T07:18:46.763Z,14.10
2018-05-05T07:21:15.040Z,14.30
2018-05-05T07:23:43.287Z,14.40
2018-05-05T07:26:12.319Z,14.50
2018-05-05T07:28:40.589Z,14.50
2018-05-05T07:31:08.850Z,14.70
2018-05-05T07:33:37.879Z,14.80
2018-05-05T07:36:06.157Z,14.80
2018-05-05T07:38:34.399Z,14.90
2018-05-05T07:41:03.418Z,15.00
2018-05-05T07:43:31.691Z,14.90
2018-05-05T07:45:59.959Z,15.00
2018-05-05T07:48:28.239Z,15.10
2018-05-05T07:50:56.517Z,15.30
2018-05-05T07:53:24.769Z,15.30
2018-05-05T07:55:53.028Z,15.50
2018-05-05T07:58:22.057Z,15.60
2018-05-05T08:00:50.336Z,15.60
2018-05-05T08:03:18.608Z,15.70
2018-05-05T08:05:46.875Z,15.90
2018-05-05T08:08:15.133Z,16.10
2018-05-05T08:10:44.184Z,16.50
2018-05-05T08:13:12.503Z,16.40
2018-05-05T08:15:41.549Z,16.80
2018-05-05T08:18:09.830Z,16.80
2018-05-05T08:20:38.114Z,16.60
2018-05-05T08:23:06.421Z,16.60
2018-05-05T08:25:34.700Z,16.60
2018-05-05T08:28:03.733Z,16.60
2018-05-05T08:30:32.272Z,16.60
2018-05-05T08:33:00.684Z,16.70
2018-05-05T08:35:28.980Z,16.50
2018-05-05T08:37:57.253Z,16.50
2018-05-05T08:40:25.549Z,16.60
2018-05-05T08:42:53.858Z,16.80
2018-05-05T08:45:22.931Z,16.80
2018-05-05T08:47:51.192Z,16.80
2018-05-05T08:50:19.471Z,17.00
2018-05-05T08:52:47.740Z,17.30
2018-05-05T08:55:16.041Z,17.30
2018-05-05T08:57:44.319Z,17.40
2018-05-05T09:00:12.600Z,17.50
2018-05-05T09:02:40.929Z,17.70
2018-05-05T09:05:09.750Z,18.00
2018-05-05T09:07:39.472Z,18.10
2018-05-05T09:10:07.859Z,18.10
2018-05-05T09:12:36.908Z,17.90
2018-05-05T09:15:05.199Z,17.90
2018-05-05T09:17:33.534Z,17.70
2018-05-05T09:20:01.887Z,17.70
2018-05-05T09:22:30.968Z,17.80
2018-05-05T09:24:59.226Z,17.90
2018-05-05T09:27:27.471Z,17.90
2018-05-05T09:29:55.754Z,17.90
2018-05-05T09:32:23.998Z,18.10
2018-05-05T09:34:53.011Z,18.10
2018-05-05T09:37:21.269Z,18.10
2018-05-05T09:39:49.524Z,18.20
2018-05-05T09:42:18.545Z,18.40
2018-05-05T09:44:46.797Z,18.40
2018-05-05T09:47:15.813Z,18.60
2018-05-05T09:49:44.069Z,18.50
2018-05-05T09:52:13.091Z,18.90
2018-05-05T09:54:41.343Z,18.90
2018-05-05T09:57:10.361Z,18.80
2018-05-05T09:59:38.616Z,18.90
2018-05-05T10:02:07.637Z,18.90
2018-05-05T10:04:35.881Z,18.90
2018-05-05T10:07:04.917Z,19.10
2018-05-05T10:09:33.171Z,19.10
2018-05-05T10:12:01.465Z,19.10
2018-05-05T10:14:29.720Z,19.10
2018-05-05T10:16:57.973Z,19.20
2018-05-05T10:19:26.986Z,19.00
2018-05-05T10:21:55.973Z,19.00
2018-05-05T10:24:24.233Z,19.30
2018-05-05T10:26:53.267Z,19.10
2018-05-05T10:29:21.528Z,19.10
2018-05-05T10:31:49.839Z,19.30
2018-05-05T10:34:18.047Z,19.60
2018-05-05T10:36:47.055Z,19.80
2018-05-05T10:39:16.194Z,19.80
2018-05-05T10:41:44.333Z,19.80
2018-05-05T10:44:12.591Z,19.90
2018-05-05T10:46:41.598Z,19.80
2018-05-05T10:49:09.868Z,19.80
2018-05-05T10:51:38.883Z,20.30
2018-05-05T10:54:07.205Z,20.20
2018-05-05T10:56:35.470Z,20.20
2018-05-05T10:59:03.729Z,19.90
2018-05-05T11:01:31.985Z,20.00
2018-05-05T11:04:00.233Z,20.40
2018-05-05T11:06:29.250Z,21.30
2018-05-05T11:08:57.510Z,21.30
2018-05-05T11:11:25.760Z,21.50
2018-05-05T11:13:54.009Z,21.70
2018-05-05T11:16:22.290Z,21.80
2018-05-05T11:18:50.529Z,22.30
2018-05-05T11:21:18.776Z,22.20
2018-05-05T11:23:47.867Z,21.60
2018-05-05T11:26:16.060Z,21.60
2018-05-05T11:28:44.331Z,22.10
2018-05-05T11:31:12.578Z,22.10
2018-05-05T11:33:40.825Z,22.40
2018-05-05T11:36:09.086Z,22.20
2018-05-05T11:38:37.328Z,22.40
2018-05-05T11:41:05.582Z,22.60
2018-05-05T11:43:33.837Z,22.90
2018-05-05T11:46:02.092Z,22.80
2018-05-05T11:48:30.353Z,23.10
2018-05-05T11:50:58.611Z,23.30
2018-05-05T11:53:26.863Z,23.10
2018-05-05T11:55:55.898Z,23.30
2018-05-05T11:58:24.136Z,23.30
2018-05-05T12:00:53.168Z,24.20
2018-05-05T12:03:21.412Z,24.20
2018-05-05T12:05:50.442Z,24.00
2018-05-05T12:08:18.693Z,23.90
2018-05-05T12:10:46.971Z,23.50
2018-05-05T12:13:15.960Z,24.10
2018-05-05T12:15:44.223Z,24.10
2018-05-05T12:18:13.238Z,23.70
2018-05-05T12:20:41.496Z,23.70
2018-05-05T12:23:10.509Z,24.20
2018-05-05T12:25:38.766Z,24.10
2018-05-05T12:28:07.784Z,24.20
2018-05-05T12:30:36.045Z,24.20
2018-05-05T12:33:04.294Z,24.30
2018-05-05T12:35:33.317Z,24.20
2018-05-05T12:38:01.570Z,24.20
2018-05-05T12:40:30.614Z,24.30
2018-05-05T12:42:58.865Z,24.30
2018-05-05T12:45:27.130Z,24.40
2018-05-05T12:47:55.389Z,24.60
2018-05-05T12:50:24.424Z,24.80
2018-05-05T12:52:52.677Z,24.80
2018-05-05T12:55:20.921Z,24.70
2018-05-05T12:57:49.182Z,24.70
2018-05-05T13:00:17.429Z,24.90
2018-05-05T13:02:45.695Z,25.50
2018-05-05T13:05:13.945Z,25.90
2018-05-05T13:07:42.963Z,25.40
2018-05-05T13:10:11.208Z,25.40
2018-05-05T13:12:40.241Z,25.30
2018-05-05T13:15:08.492Z,25.30
2018-05-05T13:17:36.747Z,25.50
2018-05-05T13:20:05.769Z,25.90
2018-05-05T13:22:34.022Z,25.90
2018-05-05T13:25:03.030Z,25.50
2018-05-05T13:27:31.299Z,25.40
2018-05-05T13:30:00.326Z,24.60
2018-05-05T13:32:28.578Z,24.60
2018-05-05T13:34:56.817Z,25.00
2018-05-05T13:37:25.071Z,25.50
2018-05-05T13:39:53.324Z,25.80
2018-05-05T13:42:21.566Z,25.70
2018-05-05T13:44:50.594Z,26.10
2018-05-05T13:47:18.833Z,26.10
2018-05-05T13:49:47.859Z,26.50
2018-05-05T13:52:16.111Z,26.50
2018-05-05T13:54:44.376Z,26.60
2018-05-05T13:57:13.414Z,26.60
2018-05-05T13:59:41.670Z,26.60
2018-05-05T14:02:09.922Z,26.70
2018-05-05T14:04:38.945Z,26.20
2018-05-05T14:07:07.203Z,26.20
2018-05-05T14:09:35.464Z,26.50
2018-05-05T14:12:04.481Z,26.60
2018-05-05T14:14:32.745Z,26.60
2018-05-05T14:17:01.750Z,26.60
2018-05-05T14:19:30.009Z,26.60
2018-05-05T14:21:59.013Z,26.10
2018-05-05T14:24:27.277Z,26.10
2018-05-05T14:26:56.302Z,25.90
2018-05-05T14:29:24.563Z,25.90
2018-05-05T14:31:52.815Z,26.70
2018-05-05T14:34:21.092Z,26.60
2018-05-05T14:36:50.114Z,26.80
2018-05-05T14:39:18.380Z,26.80
2018-05-05T14:41:46.625Z,27.00
2018-05-05T14:44:15.642Z,26.40
2018-05-05T14:46:43.898Z,26.40
2018-05-05T14:49:12.916Z,26.60
2018-05-05T14:51:41.179Z,26.60
2018-05-05T14:54:10.202Z,26.90
2018-05-05T14:56:38.458Z,26.90
2018-05-05T14:59:06.709Z,26.80
2018-05-05T15:01:34.955Z,26.30
2018-05-05T15:04:03.205Z,26.90
2018-05-05T15:06:31.455Z,26.90
2018-05-05T15:08:59.698Z,27.10
2018-05-05T15:11:27.959Z,27.00
2018-05-05T15:13:56.213Z,27.00
2018-05-05T15:16:24.470Z,26.40
2018-05-05T15:18:52.704Z,27.00
2018-05-05T15:21:20.964Z,27.10
2018-05-05T15:23:49.283Z,27.20
2018-05-05T15:26:17.471Z,27.20
2018-05-05T15:28:45.718Z,26.40
2018-05-05T15:31:14.733Z,26.70
2018-05-05T15:33:42.986Z,26.70
2018-05-05T15:36:12.013Z,26.80
2018-05-05T15:38:40.258Z,26.70
2018-05-05T15:41:09.281Z,26.20
2018-05-05T15:43:37.527Z,26.20
2018-05-05T15:46:06.545Z,26.60
2018-05-05T15:48:34.808Z,26.60
2018-05-05T15:51:03.057Z,26.60
2018-05-05T15:53:31.317Z,26.80
2018-05-05T15:55:59.574Z,26.80
2018-05-05T15:58:27.829Z,26.80
2018-05-05T16:00:56.083Z,26.60
2018-05-05T16:03:25.109Z,26.50
2018-05-05T16:05:53.360Z,26.50
2018-05-05T16:08:21.616Z,26.40
2018-05-05T16:10:50.633Z,26.50
2018-05-05T16:13:18.897Z,26.50
2018-05-05T16:15:47.144Z,26.40
2018-05-05T16:18:15.406Z,26.00
2018-05-05T16:20:43.655Z,26.20
2018-05-05T16:23:11.909Z,26.50
2018-05-05T16:25:40.161Z,26.10
2018-05-05T16:28:09.183Z,25.50
2018-05-05T16:30:37.439Z,25.50
2018-05-05T16:33:06.458Z,25.80
2018-05-05T16:35:34.715Z,25.80
2018-05-05T16:38:02.956Z,26.00
2018-05-05T16:40:31.223Z,26.00
2018-05-05T16:42:59.473Z,25.50
2018-05-05T16:45:28.498Z,25.70
2018-05-05T16:47:56.746Z,25.70
2018-05-05T16:50:25.003Z,25.30
2018-05-05T16:52:53.254Z,25.20
2018-05-05T16:55:22.287Z,25.60
2018-05-05T16:57:50.530Z,25.60
2018-05-05T17:00:18.793Z,25.50
2018-05-05T17:02:47.823Z,24.80
2018-05-05T17:05:16.066Z,24.80
2018-05-05T17:07:45.081Z,25.10
2018-05-05T17:10:13.402Z,25.10
2018-05-05T17:12:41.601Z,24.90
2018-05-05T17:15:10.622Z,24.80
2018-05-05T17:17:38.877Z,24.70
2018-05-05T17:20:07.138Z,25.00
2018-05-05T17:22:35.386Z,24.80
2018-05-05T17:25:03.642Z,24.60
2018-05-05T17:27:31.890Z,24.20
2018-05-05T17:30:00.144Z,23.80
2018-05-05T17:32:29.161Z,22.60
2018-05-05T17:34:57.419Z,22.60
2018-05-05T17:37:26.456Z,21.80
2018-05-05T17:39:54.696Z,21.80
2018-05-05T17:42:23.716Z,21.30
2018-05-05T17:44:51.966Z,21.30
2018-05-05T17:47:20.990Z,21.00
2018-05-05T17:49:49.254Z,20.90
2018-05-05T17:52:17.514Z,20.80
2018-05-05T17:54:46.529Z,20.70
2018-05-05T17:57:14.877Z,20.60
2018-05-05T17:59:43.044Z,20.70
2018-05-05T18:02:12.070Z,20.50
2018-05-05T18:04:40.309Z,20.40
2018-05-05T18:07:09.330Z,20.20
2018-05-05T18:09:37.572Z,20.10
2018-05-05T18:12:05.828Z,20.10
2018-05-05T18:14:34.086Z,20.00
2018-05-05T18:17:02.426Z,20.00
2018-05-05T18:19:30.590Z,19.90
2018-05-05T18:21:59.616Z,19.80
2018-05-05T18:24:27.864Z,19.70
2018-05-05T18:26:56.896Z,19.60
2018-05-05T18:29:25.147Z,19.60
2018-05-05T18:31:53.653Z,19.50
2018-05-05T18:34:21.893Z,19.50
2018-05-05T18:36:50.906Z,19.30
2018-05-05T18:39:19.222Z,19.30
2018-05-05T18:41:47.417Z,19.20
2018-05-05T18:44:15.676Z,19.10
2018-05-05T18:46:43.926Z,19.10
2018-05-05T18:49:12.267Z,19.00
2018-05-05T18:51:41.287Z,18.80
2018-05-05T18:54:09.543Z,18.80
2018-05-05T18:56:37.785Z,18.70
2018-05-05T18:59:06.045Z,18.60
2018-05-05T19:01:34.292Z,18.40
2018-05-05T19:04:02.562Z,18.40
2018-05-05T19:06:30.827Z,18.30
2018-05-05T19:08:59.092Z,18.20
2018-05-05T19:11:28.117Z,18.10
2018-05-05T19:13:56.376Z,18.10
2018-05-05T19:16:24.620Z,18.00
2018-05-05T19:18:53.706Z,18.10
2018-05-05T19:24:20.659Z,18.00
2018-05-05T19:26:49.439Z,17.90
2018-05-05T19:29:17.683Z,17.90
2018-05-05T19:31:45.946Z,17.80
2018-05-05T19:34:15.402Z,17.70
2018-05-05T19:36:43.646Z,17.70
2018-05-05T19:39:11.970Z,17.60
2018-05-05T19:41:41.089Z,17.60
2018-05-05T19:44:10.888Z,17.50
2018-05-05T19:46:39.995Z,17.40
2018-05-05T19:49:08.165Z,17.40
2018-05-05T19:51:37.573Z,17.30
2018-05-05T19:54:06.592Z,17.20
2018-05-05T19:56:36.034Z,17.20
2018-05-05T19:59:05.288Z,17.10
2018-05-05T20:01:34.284Z,17.10
2018-05-05T20:04:03.227Z,17.00
2018-05-05T20:06:31.479Z,16.90
2018-05-05T20:08:59.727Z,16.90
2018-05-05T20:11:27.992Z,16.80
2018-05-05T20:13:58.146Z,16.70
2018-05-05T20:16:26.410Z,16.70
2018-05-05T20:18:54.754Z,16.70
2018-05-05T20:21:23.581Z,16.60
2018-05-05T20:23:51.838Z,16.50
2018-05-05T20:26:20.093Z,16.50
2018-05-05T20:28:49.238Z,16.40
2018-05-05T20:31:17.485Z,16.40
2018-05-05T20:33:45.738Z,16.30
2018-05-05T20:36:14.943Z,16.20
2018-05-05T20:38:43.190Z,16.20
2018-05-05T20:41:12.213Z,16.00
2018-05-05T20:43:41.783Z,16.00
2018-05-05T20:46:10.040Z,16.00
2018-05-05T20:48:38.298Z,15.90
2018-05-05T20:51:06.549Z,15.90
2018-05-05T20:53:35.049Z,15.80
2018-05-05T20:56:03.303Z,15.80
2018-05-05T20:58:31.561Z,15.80
2018-05-05T21:01:00.569Z,15.70
2018-05-05T21:03:28.859Z,15.70
2018-05-05T21:05:58.728Z,15.60
2018-05-05T21:08:26.986Z,15.50
2018-05-05T21:10:56.000Z,15.50
2018-05-05T21:13:24.250Z,15.40
2018-05-05T21:15:53.256Z,15.40
2018-05-05T21:18:21.504Z,15.30
2018-05-05T21:20:50.373Z,15.30
2018-05-05T21:23:18.638Z,15.30
2018-05-05T21:25:46.898Z,15.30
2018-05-05T21:28:15.299Z,15.20
2018-05-05T21:30:44.541Z,15.20
2018-05-05T21:33:12.810Z,15.10
2018-05-05T21:35:41.054Z,15.10
2018-05-05T21:38:09.314Z,15.00
2018-05-05T21:40:37.573Z,15.00
2018-05-05T21:43:06.583Z,15.00
2018-05-05T21:45:34.851Z,15.00
2018-05-05T21:48:03.110Z,14.90
2018-05-05T21:50:32.126Z,14.80
2018-05-05T21:53:00.374Z,14.70
2018-05-05T21:55:29.392Z,14.60
2018-05-05T21:57:57.665Z,14.60
2018-05-05T22:00:25.911Z,14.50
2018-05-05T22:02:54.159Z,14.60
2018-05-05T22:05:22.429Z,14.60
2018-05-05T22:07:50.669Z,14.50
2018-05-05T22:10:19.543Z,14.50
2018-05-05T22:12:48.557Z,14.40
2018-05-05T22:15:18.244Z,14.40
2018-05-05T22:17:46.470Z,14.40
2018-05-05T22:20:14.841Z,14.40
2018-05-05T22:22:43.834Z,14.30
2018-05-05T22:25:12.114Z,14.20
2018-05-05T22:27:40.395Z,14.20
2018-05-05T22:30:08.645Z,14.10
2018-05-05T22:32:36.898Z,14.00
2018-05-05T22:35:05.916Z,14.00
2018-05-05T22:37:35.108Z,14.00
2018-05-05T22:40:03.396Z,13.90
2018-05-05T22:42:31.888Z,13.90
2018-05-05T22:45:02.237Z,13.90
2018-05-05T22:47:30.487Z,13.90
2018-05-05T22:49:59.949Z,13.80
2018-05-05T22:52:34.835Z,13.80
2018-05-05T22:55:03.110Z,13.80
2018-05-05T22:57:31.367Z,13.70
2018-05-05T23:00:03.339Z,13.70
2018-05-05T23:02:31.595Z,13.60
2018-05-05T23:04:59.857Z,13.60
2018-05-05T23:07:28.124Z,13.60
2018-05-05T23:09:56.385Z,13.60
2018-05-05T23:12:25.410Z,13.60
2018-05-05T23:14:53.662Z,13.60
2018-05-05T23:17:22.689Z,13.50
2018-05-05T23:19:50.945Z,13.50
2018-05-05T23:22:19.956Z,13.40
2018-05-05T23:24:49.371Z,13.40
2018-05-05T23:27:17.625Z,13.30
2018-05-05T23:29:45.885Z,13.30
2018-05-05T23:32:14.753Z,13.30
2018-05-05T23:34:43.267Z,13.20
2018-05-05T23:37:11.520Z,13.20
2018-05-05T23:39:41.578Z,13.20
2018-05-05T23:42:09.834Z,13.20
2018-05-05T23:44:38.093Z,13.20
2018-05-05T23:47:07.119Z,13.20
2018-05-05T23:49:35.373Z,13.20
2018-05-05T23:52:04.401Z,13.10
2018-05-05T23:54:32.647Z,13.10
2018-05-05T23:57:01.899Z,13.20
2018-05-05T23:59:30.157Z,13.10
